Farley, Massachusetts
Current Conditions -  °F | °C
As of 7:52 AM on Thursday 30 Oct 2014 (Local Time) from KORE Reporting Station
Haze Haze  
Wind Chill: 34°   Ceiling: 7500
Heat Index: 34°   Visibility: 5mi
Dew Point: 34°   Wind: 0mph
Humidity: 100%   Direction: NA
Pressure: 29.95"   Gusts: NA
Location:  42.6125°N, 72.4148°W
Report Text: KORE 301152Z AUTO 00000KT 5SM BR FEW001 OVC075 01/01 A2995 RMK AO2 SLP145 70011 T00110011 10028 20000 51009
Loading
Personal Weather Stations






























Interactive Weather Map
Tropical Storm Tracking
New forecast layout! Learn more

10-Day Weather Forecast

Advertisements
Track Severe Weather on mobile